Accueil
METAR-TAF:

METAR-TAF

Aéroports :

Brescia Ghedi, Italie

latitude: 45-25N, longitude: 010-17E, altitude: 102 m

Observation

Le bulletin a été fait il y a 1 heure et 7 minutes, à 10:55 UTC
Vent 6 kt de ouest
Température 21°C
Humidité 60%
Pression 997 hPa
Visibilité 10 km ou plus
Quelques nuages à une hauteur de 3000 ft

METAR: LIPL 051055Z 26006KT 9999 FEW030 21/13 Q0997 RMK FEW VIS MIN 9999 WIND THR31 28008KT WIND THR13 29006KT BLU

Heure: 14:02 (12:02 UTC)

Prévision

Le bulletin a été fait il y a 4 heures et 2 minutes, à 08:00 UTC
Prévision valable du 05 à 09 UTC au 05 à 18 UTC
Vent 5 kt de ouest
Visibilité 10 km ou plus
Quelques nuages à une hauteur de 3000 ft
Nuages épars à une hauteur de 8000 ft

TAF: LIPL 050800Z 0509/0518 27005KT 9999 FEW030 SCT080

Observations et prévisions météorologiques de plus de 4000 aéroports (messages METAR et TAF).

Les stations disponibles sont représentées par des disques jaunes et rouges sur la carte.

Passer la souris dessus pour voir le nom de la station.

Cliquer dessus pour voir les observations et prévisions météorologiques.

Pour changer de carte: cliquez sur les boutons verts avec une croix noire pour zoomer, sur le bouton vert avec un tiret pour effectuer un zoom arrière, ou sur les flèches vertes pour les cartes adjacentes.


METAR-TAF: